| time (UTC) | temp C | wind direction | speed KPH | gust KPH | rain 1hr cm | rain 24hr cm | rain mn cm | humidity % | barometer mb |
| 20260507111214 | 8 | 24 | 4.8 | 11.3 | 0.00 | 1.17 | 0.18 | 95 | 1013.9 |
| 20260507110659 | 8 | 5 | 6.4 | 14.5 | 0.00 | 1.17 | 0.18 | 95 | 1013.8 |
| 20260507110156 | 8 | 30 | 6.4 | 14.5 | 0.00 | 1.17 | 0.18 | 95 | 1013.8 |
| 20260507105653 | 8 | 9 | 6.4 | 12.9 | 0.00 | 1.17 | 0.18 | 95 | 1013.8 |
| 20260507105146 | 8 | 10 | 6.4 | 12.9 | 0.00 | 1.19 | 0.18 | 95 | 1013.8 |
| 20260507104636 | 8 | 331 | 6.4 | 11.3 | 0.00 | 1.19 | 0.18 | 95 | 1013.8 |
| 20260507104442 | 8 | 22 | 6.4 | 11.3 | 0.00 | 1.19 | 0.18 | 95 | 1013.7 |
| 20260507103931 | 8 | 5 | 4.8 | 11.3 | 0.00 | 1.19 | 0.18 | 95 | 1013.7 |
| 20260507103421 | 8 | 338 | 4.8 | 9.7 | 0.00 | 1.19 | 0.18 | 95 | 1013.7 |
| 20260507102615 | 8 | 44 | 4.8 | 12.9 | 0.00 | 1.19 | 0.18 | 95 | 1013.6 |
| 20260507102138 | 8 | 40 | 4.8 | 12.9 | 0.00 | 1.19 | 0.18 | 95 | 1013.6 |
| 20260507101600 | 8 | 31 | 4.8 | 9.7 | 0.00 | 1.22 | 0.18 | 95 | 1013.5 |
| 20260507101058 | 8 | 41 | 4.8 | 11.3 | 0.00 | 1.22 | 0.18 | 95 | 1013.4 |
| 20260507100638 | 8 | 13 | 3.2 | 11.3 | 0.00 | 1.22 | 0.18 | 95 | 1013.3 |
| 20260507100622 | 8 | 17 | 4.8 | 11.3 | 0.00 | 1.22 | 0.18 | 95 | 1013.4 |
| 20260507095536 | 8 | 5 | 4.8 | 11.3 | 0.00 | 1.22 | 0.18 | 95 | 1013.3 |
| 20260507095034 | 8 | 18 | 4.8 | 9.7 | 0.00 | 1.22 | 0.18 | 95 | 1013.2 |
| 20260507094528 | 8 | 355 | 3.2 | 8.0 | 0.00 | 1.22 | 0.18 | 95 | 1013.2 |
| 20260507094021 | 8 | 346 | 4.8 | 12.9 | 0.00 | 1.22 | 0.18 | 95 | 1013.1 |
| 20260507093517 | 7 | 346 | 6.4 | 12.9 | 0.00 | 1.22 | 0.18 | 95 | 1013.0 |
| 20260507093017 | 7 | 355 | 4.8 | 12.9 | 0.00 | 1.22 | 0.18 | 95 | 1013.0 |
| 20260507092520 | 7 | 330 | 6.4 | 11.3 | 0.00 | 1.22 | 0.18 | 95 | 1012.9 |
| 20260507092306 | 7 | 17 | 6.4 | 12.9 | 0.00 | 1.24 | 0.18 | 95 | 1012.6 |
| 20260507092007 | 7 | 28 | 6.4 | 12.9 | 0.00 | 1.24 | 0.18 | 95 | 1012.9 |
| 20260507091610 | 7 | 5 | 6.4 | 12.9 | 0.00 | 1.24 | 0.18 | 95 | 1012.8 |
| 20260507090434 | 7 | 40 | 6.4 | 14.5 | 0.00 | 1.24 | 0.18 | 95 | 1012.6 |
| 20260507085933 | 7 | 5 | 6.4 | 14.5 | 0.00 | 1.27 | 0.18 | 95 | 1012.6 |
| 20260507085738 | 7 | 325 | 6.4 | 12.9 | 0.00 | 1.27 | 0.18 | 95 | 1012.6 |
| 20260507084921 | 7 | 15 | 4.8 | 9.7 | 0.00 | 1.27 | 0.18 | 95 | 1012.6 |
| 20260507084416 | 7 | 24 | 4.8 | 11.3 | 0.00 | 1.27 | 0.18 | 95 | 1012.6 |
| 20260507083909 | 7 | 17 | 4.8 | 11.3 | 0.00 | 1.27 | 0.18 | 95 | 1012.5 |
| 20260507083403 | 7 | 347 | 6.4 | 11.3 | 0.00 | 1.27 | 0.18 | 95 | 1012.4 |
| 20260507082858 | 7 | 13 | 4.8 | 9.7 | 0.00 | 1.27 | 0.18 | 95 | 1012.5 |
| 20260507082352 | 7 | 26 | 4.8 | 11.3 | 0.00 | 1.27 | 0.18 | 95 | 1012.4 |
| 20260507081846 | 7 | 26 | 6.4 | 14.5 | 0.00 | 1.27 | 0.18 | 95 | 1012.3 |
| 20260507081335 | 7 | 355 | 6.4 | 14.5 | 0.00 | 1.30 | 0.18 | 95 | 1012.2 |
| 20260507080836 | 7 | 0 | 4.8 | 11.3 | 0.00 | 1.30 | 0.18 | 95 | 1012.2 |
| 20260507080323 | 7 | 348 | 4.8 | 11.3 | 0.00 | 1.30 | 0.18 | 95 | 1012.2 |
| 20260507080245 | 7 | 20 | 4.8 | 12.9 | 0.00 | 1.32 | 0.18 | 95 | 1012.0 |
| 20260507080240 | 7 | 337 | 3.2 | 11.3 | 0.00 | 1.30 | 0.18 | 95 | 1012.1 |
| 20260507074805 | 7 | 338 | 6.4 | 14.5 | 0.00 | 1.32 | 0.18 | 95 | 1012.0 |
| 20260507074305 | 7 | 0 | 6.4 | 14.5 | 0.00 | 1.32 | 0.18 | 95 | 1012.0 |
| 20260507073804 | 7 | 355 | 6.4 | 12.9 | 0.00 | 1.35 | 0.18 | 95 | 1011.9 |
| 20260507073252 | 7 | 28 | 4.8 | 11.3 | 0.00 | 1.35 | 0.18 | 95 | 1011.8 |
| 20260507072749 | 7 | 355 | 4.8 | 12.9 | 0.00 | 1.37 | 0.18 | 95 | 1011.7 |
| 20260507072236 | 7 | 346 | 6.4 | 12.9 | 0.00 | 1.37 | 0.18 | 95 | 1011.7 |
| 20260507071734 | 7 | 346 | 6.4 | 12.9 | 0.03 | 1.37 | 0.18 | 95 | 1011.6 |
| 20260507071530 | 7 | 13 | 6.4 | 12.9 | 0.03 | 1.37 | 0.18 | 95 | 1011.6 |
| 20260507071045 | 7 | 70 | 4.8 | 12.9 | 0.03 | 1.40 | 0.18 | 95 | 1011.6 |
| 20260507070216 | 7 | 10 | 4.8 | 9.7 | 0.03 | 1.40 | 0.18 | 95 | 1011.6 |
| 20260507065710 | 7 | 355 | 4.8 | 11.3 | 0.03 | 1.42 | 0.18 | 95 | 1011.5 |
| 20260507065200 | 7 | 13 | 6.4 | 11.3 | 0.03 | 1.45 | 0.18 | 95 | 1011.4 |
| 20260507064653 | 7 | 0 | 6.4 | 11.3 | 0.03 | 1.45 | 0.18 | 95 | 1011.4 |
| 20260507064152 | 7 | 20 | 6.4 | 11.3 | 0.03 | 1.45 | 0.18 | 95 | 1011.4 |
| 20260507063648 | 7 | 13 | 6.4 | 11.3 | 0.03 | 1.47 | 0.18 | 95 | 1011.2 |
| 20260507063135 | 7 | 46 | 6.4 | 14.5 | 0.03 | 1.50 | 0.18 | 95 | 1011.2 |
| 20260507062634 | 7 | 15 | 6.4 | 14.5 | 0.03 | 1.52 | 0.18 | 95 | 1011.1 |
| 20260507062123 | 7 | 18 | 6.4 | 12.9 | 0.03 | 1.55 | 0.18 | 95 | 1011.1 |
| 20260507061617 | 7 | 0 | 6.4 | 16.1 | 0.00 | 1.55 | 0.15 | 95 | 1011.0 |
| 20260507061338 | 7 | 23 | 6.4 | 16.1 | 0.00 | 1.55 | 0.15 | 95 | 1010.9 |
| 20260507061324 | 7 | 350 | 6.4 | 11.3 | 0.00 | 1.55 | 0.15 | 95 | 1010.7 |
| 20260507060108 | 7 | 36 | 6.4 | 11.3 | 0.00 | 1.57 | 0.15 | 95 | 1010.7 |
| 20260507055557 | 7 | 17 | 4.8 | 11.3 | 0.00 | 1.60 | 0.15 | 95 | 1010.6 |
| 20260507055352 | 7 | 344 | 6.4 | 19.3 | 0.03 | 1.60 | 0.15 | 95 | 1010.6 |
| 20260507054542 | 7 | 5 | 8.0 | 19.3 | 0.03 | 1.63 | 0.15 | 95 | 1010.5 |
| 20260507054036 | 7 | 35 | 6.4 | 12.9 | 0.03 | 1.63 | 0.15 | 95 | 1010.4 |
| 20260507053849 | 7 | 0 | 6.4 | 12.9 | 0.03 | 1.65 | 0.15 | 95 | 1010.4 |
| 20260507053327 | 7 | 5 | 6.4 | 12.9 | 0.03 | 1.65 | 0.15 | 95 | 1010.3 |
| 20260507052828 | 7 | 343 | 8.0 | 16.1 | 0.03 | 1.68 | 0.15 | 95 | 1010.2 |
| 20260507052011 | 7 | 13 | 8.0 | 16.1 | 0.03 | 1.70 | 0.15 | 95 | 1010.2 |
| 20260507051820 | 7 | 25 | 6.4 | 12.9 | 0.03 | 1.73 | 0.15 | 95 | 1010.2 |
| 20260507051312 | 7 | 355 | 6.4 | 14.5 | 0.03 | 1.75 | 0.15 | 95 | 1010.2 |
| 20260507050454 | 7 | 342 | 4.8 | 14.5 | 0.03 | 1.75 | 0.15 | 95 | 1010.1 |
| 20260507045951 | 7 | 355 | 4.8 | 9.7 | 0.03 | 1.78 | 0.15 | 95 | 1010.1 |
| 20260507045445 | 7 | 20 | 6.4 | 12.9 | 0.00 | 1.78 | 0.15 | 95 | 1010.0 |
| 20260507045235 | 7 | 15 | 6.4 | 12.9 | 0.03 | 1.80 | 0.15 | 95 | 1010.0 |
| 20260507044429 | 7 | 327 | 4.8 | 11.3 | 0.03 | 1.83 | 0.15 | 95 | 1009.9 |
| 20260507043927 | 7 | 322 | 4.8 | 11.3 | 0.03 | 1.83 | 0.15 | 95 | 1009.8 |
| 20260507043424 | 7 | 0 | 6.4 | 12.9 | 0.03 | 1.85 | 0.15 | 95 | 1009.8 |
| 20260507042912 | 8 | 9 | 6.4 | 12.9 | 0.03 | 1.88 | 0.15 | 95 | 1009.7 |
| 20260507042713 | 8 | 15 | 6.4 | 12.9 | 0.05 | 1.91 | 0.15 | 95 | 1009.7 |
| 20260507041859 | 8 | 317 | 8.0 | 12.9 | 0.05 | 1.93 | 0.15 | 95 | 1009.6 |
| 20260507041357 | 8 | 350 | 8.0 | 19.3 | 0.05 | 1.93 | 0.15 | 95 | 1009.6 |
| 20260507040852 | 8 | 11 | 8.0 | 19.3 | 0.05 | 1.96 | 0.15 | 95 | 1009.6 |
| 20260507040353 | 8 | 0 | 8.0 | 16.1 | 0.05 | 1.98 | 0.15 | 95 | 1009.5 |
| 20260507040200 | 8 | 334 | 6.4 | 14.5 | 0.05 | 2.01 | 0.15 | 95 | 1009.5 |
| 20260507035329 | 8 | 355 | 6.4 | 14.5 | 0.03 | 2.01 | 0.15 | 95 | 1009.5 |
| 20260507034827 | 8 | 347 | 6.4 | 14.5 | 0.03 | 2.03 | 0.13 | 95 | 1009.5 |
| 20260507034319 | 8 | 335 | 4.8 | 11.3 | 0.03 | 2.03 | 0.13 | 95 | 1009.4 |
| 20260507033818 | 8 | 15 | 4.8 | 11.3 | 0.03 | 2.03 | 0.13 | 95 | 1009.4 |
| 20260507033621 | 8 | 293 | 4.8 | 11.3 | 0.03 | 2.06 | 0.13 | 95 | 1009.4 |
| 20260507032800 | 8 | 329 | 6.4 | 11.3 | 0.03 | 2.08 | 0.13 | 95 | 1009.3 |
| 20260507032258 | 8 | 343 | 6.4 | 14.5 | 0.00 | 2.08 | 0.10 | 95 | 1009.3 |
| 20260507031751 | 8 | 330 | 4.8 | 12.9 | 0.03 | 2.08 | 0.10 | 95 | 1009.3 |
| 20260507031246 | 8 | 342 | 4.8 | 11.3 | 0.03 | 2.11 | 0.10 | 95 | 1009.2 |
| 20260507030736 | 8 | 336 | 4.8 | 11.3 | 0.03 | 2.11 | 0.10 | 95 | 1009.2 |
| 20260507030229 | 8 | 346 | 4.8 | 9.7 | 0.03 | 2.13 | 0.10 | 95 | 1009.2 |
| 20260507025844 | 8 | 336 | 3.2 | 11.3 | 0.03 | 2.16 | 0.10 | 95 | 1009.1 |
| 20260507025818 | 8 | 339 | 4.8 | 11.3 | 0.03 | 2.13 | 0.10 | 95 | 1009.1 |
| 20260507025008 | 8 | 328 | 4.8 | 12.9 | 0.03 | 2.18 | 0.10 | 95 | 1009.1 |
| 20260507024504 | 8 | 336 | 4.8 | 12.9 | 0.03 | 2.18 | 0.10 | 95 | 1009.0 |
| 20260507023657 | 8 | 310 | 3.2 | 9.7 | 0.03 | 2.21 | 0.10 | 95 | 1009.0 |
| 20260507023156 | 8 | 320 | 3.2 | 9.7 | 0.03 | 2.21 | 0.10 | 95 | 1009.0 |
| 20260507022650 | 8 | 318 | 3.2 | 8.0 | 0.03 | 2.21 | 0.10 | 95 | 1009.0 |
| 20260507022143 | 8 | 333 | 4.8 | 9.7 | 0.03 | 2.24 | 0.10 | 95 | 1008.9 |
| 20260507021637 | 8 | 328 | 4.8 | 11.3 | 0.00 | 2.24 | 0.08 | 95 | 1009.0 |
| 20260507021128 | 8 | 16 | 6.4 | 11.3 | 0.00 | 2.24 | 0.08 | 95 | 1008.9 |
| 20260507020625 | 8 | 355 | 6.4 | 16.1 | 0.00 | 2.26 | 0.08 | 95 | 1008.9 |
| 20260507020522 | 8 | 0 | 4.8 | 16.1 | 0.00 | 2.26 | 0.08 | 95 | 1008.8 |
| 20260507015613 | 8 | 13 | 4.8 | 11.3 | 0.00 | 2.29 | 0.08 | 95 | 1008.7 |
| 20260507015108 | 8 | 11 | 6.4 | 16.1 | 0.00 | 2.29 | 0.08 | 95 | 1008.7 |
| 20260507014916 | 8 | 11 | 6.4 | 19.3 | 0.00 | 2.31 | 0.08 | 95 | 1008.6 |
| 20260507014557 | 8 | 0 | 6.4 | 19.3 | 0.00 | 2.31 | 0.08 | 95 | 1008.7 |
| 20260507014354 | 8 | 11 | 6.4 | 19.3 | 0.00 | 2.31 | 0.08 | 95 | 1008.6 |
| 20260507013546 | 8 | 0 | 8.0 | 19.3 | 0.00 | 2.36 | 0.08 | 95 | 1008.6 |
| 20260507013342 | 8 | 340 | 6.4 | 12.9 | 0.00 | 2.39 | 0.08 | 95 | 1008.6 |
| 20260507012536 | 8 | 331 | 8.0 | 14.5 | 0.03 | 2.41 | 0.08 | 95 | 1008.5 |
| 20260507012028 | 8 | 337 | 6.4 | 19.3 | 0.03 | 2.44 | 0.08 | 95 | 1008.5 |
| 20260507011521 | 8 | 355 | 6.4 | 19.3 | 0.03 | 2.46 | 0.08 | 95 | 1008.4 |
| 20260507011015 | 8 | 17 | 6.4 | 12.9 | 0.03 | 2.49 | 0.08 | 95 | 1008.5 |
| 20260507010506 | 8 | 348 | 8.0 | 16.1 | 0.03 | 2.54 | 0.08 | 95 | 1008.5 |
| 20260507010335 | 8 | 275 | 6.4 | 16.1 | 0.03 | 2.57 | 0.08 | 95 | 1008.5 |
| 20260507005453 | 8 | 288 | 4.8 | 14.5 | 0.03 | 2.59 | 0.08 | 95 | 1008.5 |
| 20260507004951 | 8 | 338 | 4.8 | 16.1 | 0.03 | 2.59 | 0.08 | 95 | 1008.4 |
| 20260507004445 | 8 | 331 | 6.4 | 16.1 | 0.03 | 2.62 | 0.08 | 95 | 1008.4 |
| 20260507004104 | 8 | 288 | 6.4 | 19.3 | 0.05 | 2.67 | 0.08 | 95 | 1008.5 |
| 20260507004036 | 8 | 317 | 6.4 | 19.3 | 0.03 | 2.64 | 0.08 | 95 | 1008.5 |
| 20260507002937 | 8 | 35 | 4.8 | 12.9 | 0.03 | 2.67 | 0.08 | 95 | 1008.4 |
| 20260507002436 | 8 | 316 | 3.2 | 9.7 | 0.03 | 2.69 | 0.05 | 95 | 1008.4 |
| 20260507001936 | 8 | 338 | 4.8 | 12.9 | 0.03 | 2.69 | 0.05 | 95 | 1008.3 |
| 20260507001437 | 8 | 315 | 6.4 | 14.5 | 0.03 | 2.69 | 0.05 | 95 | 1008.3 |
| 20260507000937 | 8 | 324 | 6.4 | 14.5 | 0.05 | 2.72 | 0.05 | 95 | 1008.2 |
| 20260507000435 | 8 | 283 | 4.8 | 14.5 | 0.05 | 2.74 | 0.05 | 95 | 1008.3 |
| 20260506235935 | 8 | 272 | 4.8 | 11.3 | 0.05 | 2.77 | 0.05 | 95 | 1008.2 |
| 20260506235436 | 8 | 316 | 4.8 | 12.9 | 0.05 | 2.77 | 0.05 | 95 | 1008.3 |
| 20260506234936 | 8 | 333 | 6.4 | 19.3 | 0.05 | 2.77 | 0.05 | 95 | 1008.3 |
| 20260506234438 | 8 | 331 | 8.0 | 19.3 | 0.05 | 2.77 | 0.05 | 95 | 1008.3 |
| 20260506233938 | 8 | 308 | 6.4 | 19.3 | 0.05 | 2.79 | 0.05 | 95 | 1008.3 |
| 20260506233433 | 8 | 19 | 4.8 | 14.5 | 0.05 | 2.77 | 0.05 | 95 | 1008.2 |
| 20260506232933 | 8 | 329 | 4.8 | 11.3 | 0.05 | 2.77 | 0.05 | 95 | 1008.2 |
| 20260506232432 | 8 | 345 | 4.8 | 11.3 | 0.05 | 2.79 | 0.05 | 95 | 1008.1 |
| 20260506231933 | 8 | 293 | 4.8 | 12.9 | 0.05 | 2.79 | 0.05 | 95 | 1008.2 |
| 20260506231432 | 8 | 333 | 4.8 | 9.7 | 0.05 | 2.79 | 0.05 | 95 | 1008.2 |
| 20260506230924 | 8 | 321 | 4.8 | 12.9 | 0.03 | 2.77 | 0.03 | 95 | 1008.2 |
| 20260506230424 | 8 | 322 | 6.4 | 14.5 | 0.03 | 2.77 | 0.03 | 95 | 1008.2 |
| 20260506230234 | 8 | 323 | 4.8 | 14.5 | 0.03 | 2.77 | 0.03 | 95 | 1008.1 |
| 20260506225424 | 8 | 273 | 6.4 | 14.5 | 0.03 | 2.77 | 0.03 | 95 | 1008.2 |
| 20260506225222 | 8 | 341 | 8.0 | 17.7 | 0.03 | 2.77 | 0.03 | 95 | 1008.1 |
| 20260506224425 | 8 | 311 | 6.4 | 17.7 | 0.03 | 2.77 | 0.03 | 95 | 1008.1 |
| 20260506223924 | 8 | 333 | 6.4 | 16.1 | 0.03 | 2.77 | 0.03 | 95 | 1008.1 |
| 20260506223424 | 8 | 331 | 6.4 | 16.1 | 0.03 | 2.77 | 0.03 | 95 | 1008.0 |
| 20260506222927 | 8 | 268 | 6.4 | 16.1 | 0.03 | 2.77 | 0.00 | 95 | 1008.0 |
| 20260506222424 | 8 | 348 | 4.8 | 16.1 | 0.03 | 2.77 | 0.00 | 95 | 1008.0 |
| 20260506221922 | 8 | 334 | 3.2 | 9.7 | 0.03 | 2.77 | 0.00 | 95 | 1008.0 |
| 20260506221425 | 8 | 338 | 4.8 | 14.5 | 0.03 | 2.77 | 0.00 | 95 | 1008.0 |
| 20260506221208 | 8 | 322 | 4.8 | 14.5 | 0.03 | 2.77 | 0.00 | 95 | 1008.0 |
| 20260506220422 | 8 | 308 | 4.8 | 12.9 | 0.03 | 2.77 | 0.00 | 95 | 1008.0 |
| 20260506215924 | 8 | 325 | 4.8 | 12.9 | 0.05 | 2.77 | 2.77 | 95 | 1007.9 |
| 20260506215420 | 8 | 288 | 4.8 | 9.7 | 0.05 | 2.77 | 2.77 | 95 | 1008.0 |
| 20260506215209 | 8 | 344 | 4.8 | 11.3 | 0.05 | 2.77 | 2.77 | 95 | 1008.0 |
| 20260506214719 | 8 | 302 | 4.8 | 12.9 | 0.05 | 2.77 | 2.77 | 95 | 1007.9 |
| 20260506213911 | 8 | 263 | 4.8 | 12.9 | 0.05 | 2.77 | 2.77 | 95 | 1007.9 |
| 20260506213411 | 8 | 313 | 6.4 | 11.3 | 0.05 | 2.74 | 2.74 | 95 | 1007.8 |
| 20260506213031 | 8 | 281 | 4.8 | 11.3 | 0.05 | 2.74 | 2.74 | 95 | 1007.8 |
| 20260506213004 | 8 | 323 | 6.4 | 11.3 | 0.05 | 2.74 | 2.74 | 95 | 1007.8 |
| 20260506211908 | 8 | 306 | 4.8 | 11.3 | 0.05 | 2.74 | 2.74 | 95 | 1007.7 |
| 20260506211411 | 8 | 265 | 6.4 | 11.3 | 0.05 | 2.74 | 2.74 | 95 | 1007.7 |
| 20260506210943 | 8 | 278 | 4.8 | 11.3 | 0.08 | 2.72 | 2.72 | 95 | 1007.6 |
| 20260506210908 | 8 | 308 | 4.8 | 9.7 | 0.08 | 2.74 | 2.74 | 95 | 1007.6 |
| 20260506210825 | 8 | 290 | 4.8 | 11.3 | 0.08 | 2.74 | 2.74 | 95 | 1007.6 |
| 20260506210727 | 8 | 278 | 4.8 | 11.3 | 0.08 | 2.72 | 2.72 | 95 | 1007.6 |
| 20260506205408 | 8 | 296 | 4.8 | 11.3 | 0.08 | 2.72 | 2.72 | 95 | 1007.5 |
| 20260506204912 | 8 | 285 | 4.8 | 11.3 | 0.10 | 2.72 | 2.72 | 95 | 1007.6 |
| 20260506204412 | 8 | 276 | 4.8 | 9.7 | 0.08 | 2.69 | 2.69 | 95 | 1007.6 |
| 20260506203914 | 8 | 265 | 4.8 | 9.7 | 0.08 | 2.69 | 2.69 | 95 | 1007.5 |
| 20260506203423 | 8 | 293 | 4.8 | 9.7 | 0.10 | 2.69 | 2.69 | 95 | 1007.5 |
| 20260506202912 | 8 | 291 | 3.2 | 8.0 | 0.10 | 2.69 | 2.69 | 95 | 1007.5 |
| 20260506202349 | 8 | 287 | 4.8 | 12.9 | 0.13 | 2.69 | 2.69 | 95 | 1007.5 |
| 20260506201844 | 8 | 284 | 4.8 | 12.9 | 0.10 | 2.69 | 2.69 | 95 | 1007.4 |
| 20260506201723 | 8 | 309 | 4.8 | 12.9 | 0.10 | 2.69 | 2.69 | 95 | 1007.4 |
| 20260506201209 | 8 | 338 | 3.2 | 12.9 | 0.08 | 2.67 | 2.67 | 95 | 1007.4 |
| 20260506200645 | 8 | 294 | 4.8 | 9.7 | 0.10 | 2.67 | 2.67 | 95 | 1007.4 |
| 20260506195828 | 8 | 342 | 4.8 | 9.7 | 0.08 | 2.64 | 2.64 | 95 | 1007.3 |
| 20260506195328 | 8 | 328 | 4.8 | 14.5 | 0.10 | 2.64 | 2.64 | 95 | 1007.4 |
| 20260506194824 | 8 | 311 | 4.8 | 14.5 | 0.08 | 2.62 | 2.62 | 95 | 1007.4 |
| 20260506194326 | 8 | 338 | 6.4 | 12.9 | 0.08 | 2.62 | 2.62 | 95 | 1007.3 |
| 20260506194148 | 8 | 347 | 6.4 | 14.5 | 0.05 | 2.59 | 2.62 | 95 | 1007.3 |
| 20260506193323 | 8 | 17 | 6.4 | 16.1 | 0.05 | 2.59 | 2.59 | 95 | 1007.2 |
| 20260506192827 | 8 | 291 | 6.4 | 17.7 | 0.05 | 2.59 | 2.59 | 95 | 1007.2 |
| 20260506192615 | 8 | 304 | 8.0 | 17.7 | 0.05 | 2.59 | 2.59 | 95 | 1007.2 |
| 20260506191822 | 8 | 336 | 8.0 | 17.7 | 0.05 | 2.59 | 2.59 | 95 | 1007.1 |
| 20260506191324 | 8 | 336 | 8.0 | 19.3 | 0.05 | 2.59 | 2.59 | 95 | 1007.0 |
| 20260506190824 | 8 | 342 | 6.4 | 19.3 | 0.05 | 2.59 | 2.59 | 95 | 1006.9 |
| 20260506190325 | 8 | 317 | 6.4 | 16.1 | 0.05 | 2.57 | 2.57 | 95 | 1006.8 |
| 20260506185821 | 8 | 340 | 8.0 | 16.1 | 0.05 | 2.57 | 2.57 | 95 | 1006.7 |
| 20260506185515 | 8 | 338 | 8.0 | 17.7 | 0.03 | 2.54 | 2.54 | 95 | 1006.7 |
| 20260506185429 | 8 | 320 | 8.0 | 17.7 | 0.03 | 2.54 | 2.54 | 95 | 1006.7 |
| 20260506184320 | 8 | 323 | 6.4 | 16.1 | 0.03 | 2.54 | 2.54 | 95 | 1006.6 |
| 20260506183821 | 8 | 330 | 6.4 | 16.1 | 0.03 | 2.54 | 2.54 | 95 | 1006.6 |
| 20260506183319 | 8 | 345 | 6.4 | 14.5 | 0.05 | 2.54 | 2.54 | 95 | 1006.5 |
| 20260506182818 | 8 | 317 | 8.0 | 16.1 | 0.05 | 2.54 | 2.54 | 95 | 1006.6 |
| 20260506182617 | 8 | 330 | 6.4 | 16.1 | 0.05 | 2.54 | 2.54 | 95 | 1006.4 |
| 20260506181824 | 8 | 342 | 4.8 | 16.1 | 0.05 | 2.54 | 2.54 | 95 | 1006.4 |
| 20260506181315 | 8 | 332 | 6.4 | 12.9 | 0.05 | 2.54 | 2.54 | 95 | 1006.3 |
| 20260506180805 | 8 | 9 | 6.4 | 12.9 | 0.03 | 2.51 | 2.51 | 95 | 1006.3 |
| 20260506180250 | 8 | 349 | 6.4 | 16.1 | 0.05 | 2.51 | 2.51 | 95 | 1006.4 |
| 20260506175737 | 8 | 336 | 8.0 | 16.1 | 0.05 | 2.51 | 2.51 | 95 | 1006.3 |
| 20260506175232 | 8 | 15 | 6.4 | 14.5 | 0.05 | 2.51 | 2.51 | 95 | 1006.3 |
| 20260506174733 | 8 | 346 | 8.0 | 19.3 | 0.05 | 2.51 | 2.51 | 95 | 1006.3 |
| 20260506174227 | 8 | 336 | 8.0 | 19.3 | 0.05 | 2.51 | 2.51 | 95 | 1006.2 |
| 20260506173730 | 8 | 305 | 6.4 | 17.7 | 0.05 | 2.49 | 2.49 | 95 | 1006.2 |
| 20260506173229 | 8 | 0 | 8.0 | 16.1 | 0.05 | 2.49 | 2.49 | 95 | 1006.2 |
| 20260506172729 | 8 | 348 | 8.0 | 16.1 | 0.05 | 2.49 | 2.49 | 95 | 1006.1 |
| 20260506172230 | 8 | 342 | 8.0 | 17.7 | 0.05 | 2.49 | 2.49 | 95 | 1006.1 |
| 20260506171728 | 8 | 327 | 8.0 | 17.7 | 0.05 | 2.49 | 2.49 | 95 | 1006.1 |
| 20260506171231 | 8 | 336 | 8.0 | 17.7 | 0.08 | 2.49 | 2.49 | 95 | 1006.1 |
| 20260506170730 | 8 | 13 | 8.0 | 20.9 | 0.05 | 2.49 | 2.49 | 95 | 1006.0 |
| 20260506170216 | 8 | 344 | 8.0 | 20.9 | 0.08 | 2.49 | 2.49 | 95 | 1006.0 |
| 20260506165701 | 8 | 315 | 8.0 | 16.1 | 0.10 | 2.49 | 2.49 | 95 | 1006.0 |
| 20260506165514 | 8 | 318 | 6.4 | 16.1 | 0.13 | 2.49 | 2.49 | 95 | 1006.0 |
| 20260506164707 | 8 | 334 | 6.4 | 14.5 | 0.15 | 2.49 | 2.49 | 95 | 1006.0 |
| 20260506164204 | 8 | 5 | 6.4 | 14.5 | 0.15 | 2.49 | 2.49 | 95 | 1006.0 |
| 20260506163703 | 8 | 355 | 6.4 | 14.5 | 0.15 | 2.46 | 2.46 | 95 | 1006.0 |
| 20260506163513 | 8 | 355 | 6.4 | 14.5 | 0.18 | 2.46 | 2.46 | 95 | 1006.0 |
| 20260506162705 | 8 | 355 | 8.0 | 17.7 | 0.23 | 2.46 | 2.46 | 95 | 1005.9 |
| 20260506162206 | 8 | 329 | 8.0 | 17.7 | 0.23 | 2.44 | 2.44 | 95 | 1005.9 |
| 20260506161715 | 8 | 338 | 8.0 | 17.7 | 0.23 | 2.44 | 2.44 | 95 | 1005.9 |
| 20260506161210 | 8 | 306 | 6.4 | 17.7 | 0.23 | 2.41 | 2.41 | 95 | 1005.8 |
| 20260506160648 | 8 | 344 | 8.0 | 17.7 | 0.23 | 2.41 | 2.41 | 95 | 1005.9 |
| 20260506160143 | 8 | 327 | 9.7 | 17.7 | 0.23 | 2.39 | 2.39 | 95 | 1005.9 |
| 20260506155632 | 8 | 339 | 9.7 | 17.7 | 0.20 | 2.39 | 2.39 | 95 | 1005.9 |
| 20260506155411 | 8 | 337 | 9.7 | 22.5 | 0.15 | 2.31 | 2.31 | 95 | 1005.9 |
| 20260506155321 | 8 | 345 | 11.3 | 19.3 | 0.18 | 2.36 | 2.36 | 95 | 1005.9 |
| 20260506154724 | 8 | 0 | 9.7 | 20.9 | 0.18 | 2.34 | 2.34 | 95 | 1005.9 |
| 20260506153632 | 8 | 11 | 11.3 | 24.1 | 0.15 | 2.31 | 2.31 | 95 | 1005.9 |
| 20260506153130 | 8 | 355 | 9.7 | 24.1 | 0.13 | 2.26 | 2.29 | 95 | 1005.9 |
| 20260506152630 | 8 | 10 | 9.7 | 19.3 | 0.10 | 2.24 | 2.26 | 95 | 1005.9 |
| 20260506152133 | 8 | 346 | 9.7 | 17.7 | 0.08 | 2.21 | 2.21 | 95 | 1005.9 |
| 20260506151626 | 8 | 338 | 9.7 | 19.3 | 0.05 | 2.21 | 2.21 | 95 | 1005.9 |
| 20260506151126 | 8 | 337 | 8.0 | 19.3 | 0.08 | 2.21 | 2.21 | 95 | 1005.9 |
| 20260506150627 | 8 | 5 | 8.0 | 19.3 | 0.05 | 2.18 | 2.21 | 95 | 1005.8 |
| 20260506150615 | 8 | 0 | 9.7 | 20.9 | 0.05 | 2.18 | 2.18 | 95 | 1005.8 |
| 20260506145626 | 8 | 13 | 9.7 | 20.9 | 0.08 | 2.18 | 2.18 | 95 | 1005.8 |
| 20260506145125 | 8 | 346 | 9.7 | 20.9 | 0.08 | 2.18 | 2.18 | 95 | 1005.7 |
| 20260506144638 | 8 | 313 | 9.7 | 20.9 | 0.05 | 2.16 | 2.16 | 95 | 1005.7 |
| 20260506144127 | 8 | 338 | 9.7 | 20.9 | 0.05 | 2.16 | 2.16 | 95 | 1005.7 |
| 20260506143627 | 8 | 355 | 8.0 | 19.3 | 0.08 | 2.16 | 2.16 | 95 | 1005.6 |
| 20260506143122 | 8 | 349 | 6.4 | 19.3 | 0.05 | 2.13 | 2.13 | 95 | 1005.7 |
| 20260506142611 | 8 | 337 | 6.4 | 12.9 | 0.05 | 2.13 | 2.13 | 95 | 1005.7 |
| 20260506142111 | 8 | 333 | 8.0 | 17.7 | 0.08 | 2.13 | 2.13 | 95 | 1005.7 |
| 20260506141611 | 8 | 5 | 8.0 | 17.7 | 0.08 | 2.13 | 2.13 | 95 | 1005.7 |
| 20260506141110 | 8 | 348 | 6.4 | 12.9 | 0.08 | 2.11 | 2.11 | 95 | 1005.6 |
| 20260506140611 | 8 | 335 | 6.4 | 14.5 | 0.10 | 2.11 | 2.11 | 95 | 1005.6 |
| 20260506140415 | 8 | 332 | 8.0 | 14.5 | 0.10 | 2.11 | 2.11 | 95 | 1005.6 |
| 20260506135610 | 8 | 321 | 6.4 | 12.9 | 0.10 | 2.11 | 2.11 | 95 | 1005.6 |
| 20260506135110 | 8 | 337 | 6.4 | 17.7 | 0.10 | 2.11 | 2.11 | 95 | 1005.5 |
| 20260506134611 | 8 | 355 | 8.0 | 17.7 | 0.13 | 2.11 | 2.11 | 95 | 1005.5 |
| 20260506134411 | 8 | 334 | 8.0 | 17.7 | 0.13 | 2.11 | 2.11 | 95 | 1005.5 |
| 20260506133553 | 8 | 355 | 6.4 | 14.5 | 0.13 | 2.08 | 2.08 | 95 | 1005.5 |
| 20260506133042 | 8 | 5 | 6.4 | 14.5 | 0.13 | 2.08 | 2.08 | 95 | 1005.5 |
| 20260506132843 | 8 | 321 | 6.4 | 14.5 | 0.10 | 2.06 | 2.06 | 95 | 1005.5 |
| 20260506132042 | 8 | 21 | 6.4 | 12.9 | 0.13 | 2.06 | 2.06 | 95 | 1005.6 |
| 20260506131542 | 8 | 337 | 4.8 | 12.9 | 0.13 | 2.06 | 2.06 | 95 | 1005.5 |
| 20260506131353 | 8 | 13 | 4.8 | 12.9 | 0.13 | 2.03 | 2.03 | 95 | 1005.5 |
| 20260506130543 | 8 | 355 | 6.4 | 12.9 | 0.13 | 2.03 | 2.03 | 95 | 1005.5 |
| 20260506130041 | 8 | 348 | 6.4 | 12.9 | 0.13 | 2.03 | 2.03 | 95 | 1005.4 |
| 20260506125542 | 8 | 350 | 6.4 | 12.9 | 0.13 | 2.01 | 2.01 | 95 | 1005.4 |
| 20260506125045 | 8 | 331 | 6.4 | 12.9 | 0.15 | 2.01 | 2.01 | 95 | 1005.4 |
| 20260506124853 | 8 | 340 | 6.4 | 12.9 | 0.15 | 1.98 | 1.98 | 95 | 1005.4 |
| 20260506124025 | 8 | 355 | 6.4 | 12.9 | 0.15 | 1.98 | 1.98 | 95 | 1005.4 |
| 20260506123515 | 8 | 340 | 4.8 | 11.3 | 0.15 | 1.96 | 1.96 | 95 | 1005.2 |
| 20260506123015 | 8 | 333 | 4.8 | 11.3 | 0.15 | 1.96 | 1.96 | 95 | 1005.3 |
| 20260506122516 | 8 | 336 | 6.4 | 11.3 | 0.15 | 1.93 | 1.96 | 95 | 1005.2 |
| 20260506122015 | 8 | 355 | 6.4 | 11.3 | 0.15 | 1.93 | 1.93 | 95 | 1005.1 |
| 20260506121514 | 8 | 334 | 4.8 | 11.3 | 0.15 | 1.93 | 1.93 | 95 | 1005.1 |
| 20260506121016 | 8 | 350 | 4.8 | 11.3 | 0.15 | 1.93 | 1.93 | 95 | 1005.1 |
| 20260506120516 | 8 | 5 | 4.8 | 11.3 | 0.15 | 1.91 | 1.91 | 95 | 1005.1 |
| 20260506120015 | 8 | 338 | 4.8 | 12.9 | 0.15 | 1.91 | 1.91 | 95 | 1005.2 |
| 20260506115516 | 8 | 5 | 4.8 | 12.9 | 0.13 | 1.88 | 1.88 | 95 | 1005.2 |
| 20260506115010 | 8 | 333 | 4.8 | 11.3 | 0.13 | 1.85 | 1.85 | 95 | 1005.2 |
| 20260506114502 | 8 | 350 | 6.4 | 11.3 | 0.10 | 1.83 | 1.83 | 95 | 1005.1 |
| 20260506113950 | 8 | 0 | 6.4 | 11.3 | 0.08 | 1.83 | 1.83 | 95 | 1005.2 |
| 20260506113449 | 8 | 335 | 6.4 | 11.3 | 0.08 | 1.83 | 1.83 | 95 | 1005.2 |
| 20260506112949 | 8 | 355 | 4.8 | 11.3 | 0.05 | 1.80 | 1.80 | 95 | 1005.2 |
| 20260506112746 | 8 | 342 | 3.2 | 11.3 | 0.05 | 1.80 | 1.80 | 95 | 1005.2 |
| 20260506111944 | 8 | 11 | 4.8 | 11.3 | 0.05 | 1.78 | 1.78 | 95 | 1005.2 |
| 20260506111446 | 7 | 339 | 3.2 | 11.3 | 0.05 | 1.78 | 1.78 | 95 | 1005.1 |